sensor_id;sensor_type;location;lat;lon;timestamp;pressure;altitude;pressure_sealevel;temperature;humidity
32933;BME280;19444;50.518;10.870;2023-06-10T00:02:51;96413.53;;;17.05;100.00
32933;BME280;19444;50.518;10.870;2023-06-10T00:05:48;96412.63;;;17.17;100.00
32933;BME280;19444;50.518;10.870;2023-06-10T00:08:45;96417.13;;;16.78;100.00
32933;BME280;19444;50.518;10.870;2023-06-10T00:11:44;96412.31;;;16.87;100.00
32933;BME280;19444;50.518;10.870;2023-06-10T00:14:41;96411.16;;;17.04;100.00
32933;BME280;19444;50.518;10.870;2023-06-10T00:17:38;96417.19;;;16.97;100.00
32933;BME280;19444;50.518;10.870;2023-06-10T00:20:36;96410.38;;;16.88;100.00
32933;BME280;19444;50.518;10.870;2023-06-10T00:23:34;96416.75;;;16.80;100.00
32933;BME280;19444;50.518;10.870;2023-06-10T00:26:34;96418.38;;;16.53;100.00
32933;BME280;19444;50.518;10.870;2023-06-10T00:29:31;96416.03;;;16.67;100.00
32933;BME280;19444;50.518;10.870;2023-06-10T00:32:28;96419.59;;;16.39;100.00
32933;BME280;19444;50.518;10.870;2023-06-10T00:35:25;96413.84;;;16.57;100.00
32933;BME280;19444;50.518;10.870;2023-06-10T00:38:21;96415.31;;;16.54;100.00
32933;BME280;19444;50.518;10.870;2023-06-10T00:41:18;96422.31;;;16.55;100.00
32933;BME280;19444;50.518;10.870;2023-06-10T00:44:16;96418.56;;;16.60;100.00
32933;BME280;19444;50.518;10.870;2023-06-10T00:47:14;96418.19;;;16.61;100.00
32933;BME280;19444;50.518;10.870;2023-06-10T00:50:11;96425.00;;;16.39;100.00
32933;BME280;19444;50.518;10.870;2023-06-10T00:53:09;96424.47;;;16.49;100.00
32933;BME280;19444;50.518;10.870;2023-06-10T00:56:07;96422.81;;;16.29;100.00
32933;BME280;19444;50.518;10.870;2023-06-10T00:59:04;96422.94;;;16.20;100.00
32933;BME280;19444;50.518;10.870;2023-06-10T01:02:01;96436.22;;;15.98;100.00
32933;BME280;19444;50.518;10.870;2023-06-10T01:04:59;96425.09;;;16.15;100.00
32933;BME280;19444;50.518;10.870;2023-06-10T01:08:25;96431.72;;;16.17;100.00
32933;BME280;19444;50.518;10.870;2023-06-10T01:11:48;96432.38;;;15.99;100.00
32933;BME280;19444;50.518;10.870;2023-06-10T01:14:48;96426.84;;;15.67;100.00
32933;BME280;19444;50.518;10.870;2023-06-10T01:20:55;96435.06;;;16.11;100.00
32933;BME280;19444;50.518;10.870;2023-06-10T01:23:54;96441.75;;;16.01;100.00
32933;BME280;19444;50.518;10.870;2023-06-10T01:26:55;96443.28;;;15.74;100.00
32933;BME280;19444;50.518;10.870;2023-06-10T01:30:14;96441.31;;;15.87;100.00
32933;BME280;19444;50.518;10.870;2023-06-10T01:33:25;96447.28;;;15.80;100.00
32933;BME280;19444;50.518;10.870;2023-06-10T01:36:24;96444.63;;;16.08;100.00
32933;BME280;19444;50.518;10.870;2023-06-10T01:39:24;96441.31;;;15.87;100.00
32933;BME280;19444;50.518;10.870;2023-06-10T01:42:21;96440.44;;;15.83;100.00
32933;BME280;19444;50.518;10.870;2023-06-10T01:45:19;96440.31;;;15.79;100.00
32933;BME280;19444;50.518;10.870;2023-06-10T01:48:16;96437.28;;;15.81;100.00
32933;BME280;19444;50.518;10.870;2023-06-10T01:51:13;96442.50;;;15.74;100.00
32933;BME280;19444;50.518;10.870;2023-06-10T01:54:10;96444.28;;;15.45;100.00
32933;BME280;19444;50.518;10.870;2023-06-10T01:57:07;96445.66;;;15.27;100.00
32933;BME280;19444;50.518;10.870;2023-06-10T02:00:05;96440.16;;;15.48;100.00
32933;BME280;19444;50.518;10.870;2023-06-10T02:03:02;96441.50;;;15.42;100.00
32933;BME280;19444;50.518;10.870;2023-06-10T02:05:59;96448.28;;;15.23;100.00
32933;BME280;19444;50.518;10.870;2023-06-10T02:08:56;96449.97;;;15.28;100.00
32933;BME280;19444;50.518;10.870;2023-06-10T02:11:53;96444.75;;;15.35;100.00
32933;BME280;19444;50.518;10.870;2023-06-10T02:14:49;96435.88;;;15.34;100.00
32933;BME280;19444;50.518;10.870;2023-06-10T02:17:47;96439.47;;;15.26;100.00
32933;BME280;19444;50.518;10.870;2023-06-10T02:20:45;96441.75;;;15.12;100.00
32933;BME280;19444;50.518;10.870;2023-06-10T02:23:42;96442.63;;;15.16;100.00
32933;BME280;19444;50.518;10.870;2023-06-10T02:26:40;96450.19;;;15.23;100.00
32933;BME280;19444;50.518;10.870;2023-06-10T02:29:37;96444.44;;;15.12;100.00
32933;BME280;19444;50.518;10.870;2023-06-10T02:32:34;96458.06;;;14.91;100.00
32933;BME280;19444;50.518;10.870;2023-06-10T02:35:31;96453.44;;;14.92;100.00
32933;BME280;19444;50.518;10.870;2023-06-10T02:38:28;96454.00;;;14.85;100.00
32933;BME280;19444;50.518;10.870;2023-06-10T02:41:25;96453.66;;;15.23;100.00
32933;BME280;19444;50.518;10.870;2023-06-10T02:44:21;96454.09;;;14.76;100.00
32933;BME280;19444;50.518;10.870;2023-06-10T02:47:18;96453.06;;;14.81;100.00
32933;BME280;19444;50.518;10.870;2023-06-10T02:50:15;96457.25;;;14.78;100.00
32933;BME280;19444;50.518;10.870;2023-06-10T02:53:12;96452.06;;;14.73;100.00
32933;BME280;19444;50.518;10.870;2023-06-10T02:56:09;96456.97;;;14.59;100.00
32933;BME280;19444;50.518;10.870;2023-06-10T02:59:06;96451.34;;;14.52;100.00
32933;BME280;19444;50.518;10.870;2023-06-10T03:02:05;96454.50;;;14.54;100.00
32933;BME280;19444;50.518;10.870;2023-06-10T03:05:01;96463.75;;;14.44;100.00
32933;BME280;19444;50.518;10.870;2023-06-10T03:07:59;96451.13;;;14.45;100.00
32933;BME280;19444;50.518;10.870;2023-06-10T03:10:56;96442.72;;;14.59;100.00
32933;BME280;19444;50.518;10.870;2023-06-10T03:13:53;96449.56;;;14.35;100.00
32933;BME280;19444;50.518;10.870;2023-06-10T03:16:50;96449.91;;;14.55;100.00
32933;BME280;19444;50.518;10.870;2023-06-10T03:19:47;96453.38;;;14.55;100.00
32933;BME280;19444;50.518;10.870;2023-06-10T03:22:44;96453.69;;;14.54;100.00
32933;BME280;19444;50.518;10.870;2023-06-10T03:25:41;96452.97;;;14.44;100.00
32933;BME280;19444;50.518;10.870;2023-06-10T03:28:37;96461.97;;;14.36;100.00
32933;BME280;19444;50.518;10.870;2023-06-10T03:31:34;96464.78;;;14.40;100.00
32933;BME280;19444;50.518;10.870;2023-06-10T03:34:33;96467.31;;;14.45;100.00
32933;BME280;19444;50.518;10.870;2023-06-10T03:37:30;96472.97;;;14.43;100.00
32933;BME280;19444;50.518;10.870;2023-06-10T03:40:27;96459.00;;;14.62;100.00
32933;BME280;19444;50.518;10.870;2023-06-10T03:43:24;96466.47;;;14.77;100.00
32933;BME280;19444;50.518;10.870;2023-06-10T03:46:21;96458.66;;;14.51;100.00
32933;BME280;19444;50.518;10.870;2023-06-10T03:49:18;96456.44;;;14.66;100.00
32933;BME280;19444;50.518;10.870;2023-06-10T03:52:15;96458.38;;;14.77;100.00
32933;BME280;19444;50.518;10.870;2023-06-10T03:55:12;96455.47;;;14.95;100.00
32933;BME280;19444;50.518;10.870;2023-06-10T03:58:10;96464.44;;;14.99;100.00
32933;BME280;19444;50.518;10.870;2023-06-10T04:01:10;96464.13;;;15.00;100.00
32933;BME280;19444;50.518;10.870;2023-06-10T04:04:07;96462.22;;;15.13;100.00
32933;BME280;19444;50.518;10.870;2023-06-10T04:07:05;96460.19;;;15.22;100.00
32933;BME280;19444;50.518;10.870;2023-06-10T04:10:02;96465.59;;;15.10;100.00
32933;BME280;19444;50.518;10.870;2023-06-10T04:12:59;96464.13;;;15.37;100.00
32933;BME280;19444;50.518;10.870;2023-06-10T04:15:56;96464.44;;;15.35;100.00
32933;BME280;19444;50.518;10.870;2023-06-10T04:18:53;96465.13;;;15.45;100.00
32933;BME280;19444;50.518;10.870;2023-06-10T04:21:50;96466.94;;;15.65;100.00
32933;BME280;19444;50.518;10.870;2023-06-10T04:24:47;96456.22;;;15.56;100.00
32933;BME280;19444;50.518;10.870;2023-06-10T04:27:44;96462.41;;;15.69;100.00
32933;BME280;19444;50.518;10.870;2023-06-10T04:30:41;96456.00;;;15.74;100.00
32933;BME280;19444;50.518;10.870;2023-06-10T04:33:38;96449.34;;;15.71;100.00
32933;BME280;19444;50.518;10.870;2023-06-10T04:36:35;96454.03;;;15.86;100.00
32933;BME280;19444;50.518;10.870;2023-06-10T04:39:32;96443.75;;;16.04;100.00
32933;BME280;19444;50.518;10.870;2023-06-10T04:42:31;96445.88;;;15.99;100.00
32933;BME280;19444;50.518;10.870;2023-06-10T04:45:28;96449.44;;;16.15;100.00
32933;BME280;19444;50.518;10.870;2023-06-10T04:48:26;96458.44;;;16.19;100.00
32933;BME280;19444;50.518;10.870;2023-06-10T04:51:23;96458.63;;;16.26;100.00
32933;BME280;19444;50.518;10.870;2023-06-10T04:54:20;96459.97;;;16.32;100.00
32933;BME280;19444;50.518;10.870;2023-06-10T04:57:17;96459.13;;;16.60;100.00
32933;BME280;19444;50.518;10.870;2023-06-10T05:00:14;96463.47;;;16.76;100.00
32933;BME280;19444;50.518;10.870;2023-06-10T05:03:11;96470.50;;;16.65;100.00
32933;BME280;19444;50.518;10.870;2023-06-10T05:06:09;96462.78;;;16.95;100.00
32933;BME280;19444;50.518;10.870;2023-06-10T05:09:06;96461.81;;;17.03;100.00
32933;BME280;19444;50.518;10.870;2023-06-10T05:12:04;96466.97;;;17.24;100.00
32933;BME280;19444;50.518;10.870;2023-06-10T05:15:01;96465.47;;;17.27;100.00
32933;BME280;19444;50.518;10.870;2023-06-10T05:17:58;96470.28;;;17.33;99.51
32933;BME280;19444;50.518;10.870;2023-06-10T05:20:55;96469.28;;;17.42;100.00
32933;BME280;19444;50.518;10.870;2023-06-10T05:23:52;96475.63;;;17.30;100.00
32933;BME280;19444;50.518;10.870;2023-06-10T05:26:50;96472.19;;;17.49;99.40
32933;BME280;19444;50.518;10.870;2023-06-10T05:29:47;96466.00;;;17.68;100.00
32933;BME280;19444;50.518;10.870;2023-06-10T05:32:44;96468.72;;;17.68;100.00
32933;BME280;19444;50.518;10.870;2023-06-10T05:35:41;96471.28;;;17.60;100.00
32933;BME280;19444;50.518;10.870;2023-06-10T05:38:38;96468.47;;;17.73;100.00
32933;BME280;19444;50.518;10.870;2023-06-10T05:41:35;96463.78;;;17.89;100.00
32933;BME280;19444;50.518;10.870;2023-06-10T05:44:33;96464.72;;;17.97;100.00
32933;BME280;19444;50.518;10.870;2023-06-10T05:47:30;96461.75;;;18.02;100.00
32933;BME280;19444;50.518;10.870;2023-06-10T05:50:27;96466.38;;;18.21;92.64
32933;BME280;19444;50.518;10.870;2023-06-10T05:53:24;96466.50;;;18.28;95.76
32933;BME280;19444;50.518;10.870;2023-06-10T05:56:21;96475.56;;;18.35;100.00
32933;BME280;19444;50.518;10.870;2023-06-10T05:59:19;96462.44;;;18.18;100.00
32933;BME280;19444;50.518;10.870;2023-06-10T06:02:15;96459.44;;;18.42;100.00
32933;BME280;19444;50.518;10.870;2023-06-10T06:05:13;96456.50;;;18.51;99.16
32933;BME280;19444;50.518;10.870;2023-06-10T06:08:10;96452.69;;;18.56;96.24
32933;BME280;19444;50.518;10.870;2023-06-10T06:11:07;96449.19;;;18.55;100.00
32933;BME280;19444;50.518;10.870;2023-06-10T06:14:04;96448.53;;;18.62;99.71
32933;BME280;19444;50.518;10.870;2023-06-10T06:17:01;96444.84;;;18.70;97.83
32933;BME280;19444;50.518;10.870;2023-06-10T06:19:58;96442.31;;;18.81;86.08
32933;BME280;19444;50.518;10.870;2023-06-10T06:22:55;96443.88;;;18.82;99.86
32933;BME280;19444;50.518;10.870;2023-06-10T06:25:52;96435.34;;;18.83;90.86
32933;BME280;19444;50.518;10.870;2023-06-10T06:28:49;96446.88;;;18.99;100.00
32933;BME280;19444;50.518;10.870;2023-06-10T06:31:46;96438.25;;;19.17;93.47
32933;BME280;19444;50.518;10.870;2023-06-10T06:34:43;96442.59;;;19.21;96.93
32933;BME280;19444;50.518;10.870;2023-06-10T06:37:40;96444.41;;;19.14;100.00
32933;BME280;19444;50.518;10.870;2023-06-10T06:40:37;96436.84;;;19.26;100.00
32933;BME280;19444;50.518;10.870;2023-06-10T06:43:34;96440.69;;;19.25;98.21
32933;BME280;19444;50.518;10.870;2023-06-10T06:46:31;96439.38;;;19.39;100.00
32933;BME280;19444;50.518;10.870;2023-06-10T06:49:28;96436.06;;;19.52;96.75
32933;BME280;19444;50.518;10.870;2023-06-10T06:52:25;96438.28;;;19.70;93.85
32933;BME280;19444;50.518;10.870;2023-06-10T06:55:22;96440.22;;;19.69;86.67
32933;BME280;19444;50.518;10.870;2023-06-10T06:58:19;96439.09;;;19.74;99.62
32933;BME280;19444;50.518;10.870;2023-06-10T07:01:16;96445.50;;;19.88;89.29
32933;BME280;19444;50.518;10.870;2023-06-10T07:04:15;96444.75;;;19.92;84.48
32933;BME280;19444;50.518;10.870;2023-06-10T07:07:12;96444.13;;;20.02;95.88
32933;BME280;19444;50.518;10.870;2023-06-10T07:10:09;96452.16;;;20.21;97.41
32933;BME280;19444;50.518;10.870;2023-06-10T07:13:06;96447.22;;;20.34;87.01
32933;BME280;19444;50.518;10.870;2023-06-10T07:16:03;96448.97;;;20.15;96.00
32933;BME280;19444;50.518;10.870;2023-06-10T07:19:00;96441.91;;;20.44;98.69
32933;BME280;19444;50.518;10.870;2023-06-10T07:22:00;96447.03;;;20.50;79.75
32933;BME280;19444;50.518;10.870;2023-06-10T07:24:58;96448.59;;;20.51;93.50
32933;BME280;19444;50.518;10.870;2023-06-10T07:27:54;96447.63;;;20.69;98.53
32933;BME280;19444;50.518;10.870;2023-06-10T07:30:51;96452.03;;;20.81;90.78
32933;BME280;19444;50.518;10.870;2023-06-10T07:33:48;96452.88;;;20.92;76.15
32933;BME280;19444;50.518;10.870;2023-06-10T07:36:45;96447.75;;;20.84;89.46
32933;BME280;19444;50.518;10.870;2023-06-10T07:39:42;96447.03;;;20.90;81.33
32933;BME280;19444;50.518;10.870;2023-06-10T07:42:39;96443.34;;;21.13;80.31
32933;BME280;19444;50.518;10.870;2023-06-10T07:45:39;96439.03;;;21.12;88.73
32933;BME280;19444;50.518;10.870;2023-06-10T07:48:36;96446.94;;;21.24;83.51
32933;BME280;19444;50.518;10.870;2023-06-10T07:51:33;96440.72;;;21.23;91.19
32933;BME280;19444;50.518;10.870;2023-06-10T07:54:30;96441.09;;;21.25;87.47
32933;BME280;19444;50.518;10.870;2023-06-10T07:57:27;96439.38;;;21.54;93.21
32933;BME280;19444;50.518;10.870;2023-06-10T08:00:24;96437.84;;;21.57;92.27
32933;BME280;19444;50.518;10.870;2023-06-10T08:03:21;96446.84;;;21.65;74.24
32933;BME280;19444;50.518;10.870;2023-06-10T08:06:18;96434.13;;;21.86;86.73
32933;BME280;19444;50.518;10.870;2023-06-10T08:09:15;96437.28;;;21.99;79.95
32933;BME280;19444;50.518;10.870;2023-06-10T08:12:12;96432.31;;;22.19;84.83
32933;BME280;19444;50.518;10.870;2023-06-10T08:15:10;96434.03;;;22.74;79.96
32933;BME280;19444;50.518;10.870;2023-06-10T08:18:07;96439.16;;;22.89;73.68
32933;BME280;19444;50.518;10.870;2023-06-10T08:21:04;96439.94;;;22.97;69.79
32933;BME280;19444;50.518;10.870;2023-06-10T08:24:01;96436.81;;;23.27;78.81
32933;BME280;19444;50.518;10.870;2023-06-10T08:26:58;96440.31;;;23.38;70.41
32933;BME280;19444;50.518;10.870;2023-06-10T08:29:55;96438.38;;;23.71;79.20
32933;BME280;19444;50.518;10.870;2023-06-10T08:32:52;96435.94;;;23.98;72.77
32933;BME280;19444;50.518;10.870;2023-06-10T08:35:49;96431.22;;;24.02;76.01
32933;BME280;19444;50.518;10.870;2023-06-10T08:38:46;96435.03;;;24.22;64.61
32933;BME280;19444;50.518;10.870;2023-06-10T08:41:44;96432.22;;;24.51;70.83
32933;BME280;19444;50.518;10.870;2023-06-10T08:44:46;96446.25;;;24.60;77.67
32933;BME280;19444;50.518;10.870;2023-06-10T08:47:45;96443.72;;;24.87;67.82
32933;BME280;19444;50.518;10.870;2023-06-10T08:50:46;96442.78;;;25.11;69.56
32933;BME280;19444;50.518;10.870;2023-06-10T08:54:02;96439.41;;;25.41;57.21
32933;BME280;19444;50.518;10.870;2023-06-10T08:57:00;96436.28;;;24.87;59.51
32933;BME280;19444;50.518;10.870;2023-06-10T08:59:58;96440.63;;;24.81;68.36
32933;BME280;19444;50.518;10.870;2023-06-10T09:02:57;96445.81;;;25.28;64.05
32933;BME280;19444;50.518;10.870;2023-06-10T09:05:58;96433.06;;;25.51;57.16
32933;BME280;19444;50.518;10.870;2023-06-10T09:08:55;96439.03;;;25.39;56.91
32933;BME280;19444;50.518;10.870;2023-06-10T09:11:52;96442.38;;;25.99;58.50
32933;BME280;19444;50.518;10.870;2023-06-10T09:14:49;96432.25;;;25.92;56.53
32933;BME280;19444;50.518;10.870;2023-06-10T09:17:46;96433.69;;;26.04;55.61
32933;BME280;19444;50.518;10.870;2023-06-10T09:20:43;96432.69;;;25.87;54.34
32933;BME280;19444;50.518;10.870;2023-06-10T09:23:41;96433.97;;;25.79;54.87
32933;BME280;19444;50.518;10.870;2023-06-10T09:26:39;96421.50;;;26.05;56.59
32933;BME280;19444;50.518;10.870;2023-06-10T09:29:55;96431.06;;;26.27;52.09
32933;BME280;19444;50.518;10.870;2023-06-10T09:32:59;96435.38;;;26.59;50.07
32933;BME280;19444;50.518;10.870;2023-06-10T09:35:57;96431.31;;;26.71;50.99
32933;BME280;19444;50.518;10.870;2023-06-10T09:38:57;96429.16;;;26.55;51.19
32933;BME280;19444;50.518;10.870;2023-06-10T09:41:54;96424.34;;;26.89;52.33
32933;BME280;19444;50.518;10.870;2023-06-10T09:44:52;96430.03;;;26.75;52.70
32933;BME280;19444;50.518;10.870;2023-06-10T09:47:53;96419.75;;;27.06;50.58
32933;BME280;19444;50.518;10.870;2023-06-10T09:50:50;96414.31;;;27.49;50.79
32933;BME280;19444;50.518;10.870;2023-06-10T09:53:53;96414.63;;;27.98;48.42
32933;BME280;19444;50.518;10.870;2023-06-10T09:56:52;96415.00;;;26.83;50.61
32933;BME280;19444;50.518;10.870;2023-06-10T09:59:53;96421.38;;;27.50;52.05
32933;BME280;19444;50.518;10.870;2023-06-10T10:02:52;96413.28;;;28.06;52.84
32933;BME280;19444;50.518;10.870;2023-06-10T10:05:58;96413.38;;;27.36;50.64
32933;BME280;19444;50.518;10.870;2023-06-10T10:08:56;96403.88;;;27.17;49.82
32933;BME280;19444;50.518;10.870;2023-06-10T10:11:54;96399.91;;;27.42;47.12
32933;BME280;19444;50.518;10.870;2023-06-10T10:14:52;96398.81;;;27.59;51.56
32933;BME280;19444;50.518;10.870;2023-06-10T10:18:10;96389.41;;;28.20;46.63
32933;BME280;19444;50.518;10.870;2023-06-10T10:21:13;96388.09;;;28.80;46.40
32933;BME280;19444;50.518;10.870;2023-06-10T10:24:20;96396.38;;;28.24;46.08
32933;BME280;19444;50.518;10.870;2023-06-10T10:27:35;96394.97;;;27.76;46.62
32933;BME280;19444;50.518;10.870;2023-06-10T10:30:49;96407.78;;;26.93;49.73
32933;BME280;19444;50.518;10.870;2023-06-10T10:34:00;96398.00;;;27.15;51.14
32933;BME280;19444;50.518;10.870;2023-06-10T10:36:59;96400.00;;;28.21;46.68
32933;BME280;19444;50.518;10.870;2023-06-10T10:39:57;96398.47;;;27.81;48.15
32933;BME280;19444;50.518;10.870;2023-06-10T10:42:55;96391.06;;;28.53;43.95
32933;BME280;19444;50.518;10.870;2023-06-10T10:46:03;96384.25;;;29.10;44.22
32933;BME280;19444;50.518;10.870;2023-06-10T10:49:03;96389.53;;;28.13;44.75
32933;BME280;19444;50.518;10.870;2023-06-10T10:52:01;96382.41;;;28.71;45.16
32933;BME280;19444;50.518;10.870;2023-06-10T10:54:59;96384.75;;;28.53;43.97
32933;BME280;19444;50.518;10.870;2023-06-10T10:58:05;96381.50;;;29.72;42.99
32933;BME280;19444;50.518;10.870;2023-06-10T11:01:13;96365.38;;;30.25;40.19
32933;BME280;19444;50.518;10.870;2023-06-10T11:04:12;96379.44;;;30.18;42.30
32933;BME280;19444;50.518;10.870;2023-06-10T11:07:09;96374.72;;;27.87;46.09
32933;BME280;19444;50.518;10.870;2023-06-10T11:10:10;96386.56;;;29.12;42.17
32933;BME280;19444;50.518;10.870;2023-06-10T11:13:14;96366.75;;;29.01;41.98
32933;BME280;19444;50.518;10.870;2023-06-10T11:16:19;96372.59;;;30.35;41.02
32933;BME280;19444;50.518;10.870;2023-06-10T11:19:37;96367.69;;;29.10;40.55
32933;BME280;19444;50.518;10.870;2023-06-10T11:22:58;96376.44;;;30.25;42.38
32933;BME280;19444;50.518;10.870;2023-06-10T11:26:15;96383.75;;;29.61;41.32
32933;BME280;19444;50.518;10.870;2023-06-10T11:29:14;96372.00;;;29.11;41.77
32933;BME280;19444;50.518;10.870;2023-06-10T11:32:12;96377.22;;;31.96;39.59
32933;BME280;19444;50.518;10.870;2023-06-10T11:35:09;96366.50;;;30.27;39.22
32933;BME280;19444;50.518;10.870;2023-06-10T11:38:07;96376.69;;;30.43;39.97
32933;BME280;19444;50.518;10.870;2023-06-10T11:41:04;96380.25;;;28.43;44.40
32933;BME280;19444;50.518;10.870;2023-06-10T11:44:09;96375.47;;;29.61;42.82
32933;BME280;19444;50.518;10.870;2023-06-10T11:47:09;96366.19;;;31.84;41.26
32933;BME280;19444;50.518;10.870;2023-06-10T11:50:07;96361.31;;;32.81;37.25
32933;BME280;19444;50.518;10.870;2023-06-10T11:53:04;96372.25;;;33.25;36.89
32933;BME280;19444;50.518;10.870;2023-06-10T11:56:01;96387.09;;;31.15;40.94
32933;BME280;19444;50.518;10.870;2023-06-10T11:59:06;96363.84;;;32.48;37.89
32933;BME280;19444;50.518;10.870;2023-06-10T12:02:06;96369.31;;;32.17;38.33
32933;BME280;19444;50.518;10.870;2023-06-10T12:05:12;96354.25;;;31.74;36.23
32933;BME280;19444;50.518;10.870;2023-06-10T12:08:11;96358.34;;;31.69;39.37
32933;BME280;19444;50.518;10.870;2023-06-10T12:11:08;96375.81;;;30.46;40.71
32933;BME280;19444;50.518;10.870;2023-06-10T12:14:05;96373.19;;;30.68;39.94
32933;BME280;19444;50.518;10.870;2023-06-10T12:17:02;96386.50;;;31.46;38.98
32933;BME280;19444;50.518;10.870;2023-06-10T12:20:07;96362.81;;;32.33;39.42
32933;BME280;19444;50.518;10.870;2023-06-10T12:23:12;96367.53;;;32.23;41.54
32933;BME280;19444;50.518;10.870;2023-06-10T12:26:09;96379.13;;;31.65;41.15
32933;BME280;19444;50.518;10.870;2023-06-10T12:29:17;96369.50;;;32.44;39.10
32933;BME280;19444;50.518;10.870;2023-06-10T12:32:15;96364.72;;;31.92;39.97
32933;BME280;19444;50.518;10.870;2023-06-10T12:35:18;96358.75;;;31.59;40.86
32933;BME280;19444;50.518;10.870;2023-06-10T12:38:26;96363.69;;;31.42;39.62
32933;BME280;19444;50.518;10.870;2023-06-10T12:41:28;96362.34;;;32.96;38.13
32933;BME280;19444;50.518;10.870;2023-06-10T12:44:32;96348.75;;;32.98;37.28
32933;BME280;19444;50.518;10.870;2023-06-10T12:50:29;96354.38;;;32.76;38.69
32933;BME280;19444;50.518;10.870;2023-06-10T12:53:26;96342.97;;;33.70;36.46
32933;BME280;19444;50.518;10.870;2023-06-10T12:56:23;96356.63;;;32.29;37.88
32933;BME280;19444;50.518;10.870;2023-06-10T12:59:20;96356.66;;;31.03;40.42
32933;BME280;19444;50.518;10.870;2023-06-10T13:02:18;96352.28;;;30.67;39.87
32933;BME280;19444;50.518;10.870;2023-06-10T13:05:17;96344.06;;;32.77;38.70
32933;BME280;19444;50.518;10.870;2023-06-10T13:08:15;96359.53;;;32.87;39.94
32933;BME280;19444;50.518;10.870;2023-06-10T13:11:12;96353.03;;;33.40;36.56
32933;BME280;19444;50.518;10.870;2023-06-10T13:14:10;96356.28;;;33.38;37.22
32933;BME280;19444;50.518;10.870;2023-06-10T13:17:07;96364.31;;;32.03;40.64
32933;BME280;19444;50.518;10.870;2023-06-10T13:20:06;96376.41;;;30.92;41.51
32933;BME280;19444;50.518;10.870;2023-06-10T13:23:04;96384.66;;;28.93;44.05
32933;BME280;19444;50.518;10.870;2023-06-10T13:26:01;96369.84;;;31.81;40.17
32933;BME280;19444;50.518;10.870;2023-06-10T13:29:00;96364.97;;;31.85;38.61
32933;BME280;19444;50.518;10.870;2023-06-10T13:31:57;96352.78;;;33.06;36.79
32933;BME280;19444;50.518;10.870;2023-06-10T13:34:53;96361.47;;;30.77;38.36
32933;BME280;19444;50.518;10.870;2023-06-10T13:37:50;96351.75;;;32.11;37.16
32933;BME280;19444;50.518;10.870;2023-06-10T13:40:47;96360.59;;;31.62;38.61
32933;BME280;19444;50.518;10.870;2023-06-10T13:43:44;96363.97;;;33.71;34.51
32933;BME280;19444;50.518;10.870;2023-06-10T13:46:41;96368.38;;;32.73;34.98
32933;BME280;19444;50.518;10.870;2023-06-10T13:49:38;96375.69;;;31.61;38.13
32933;BME280;19444;50.518;10.870;2023-06-10T13:52:35;96354.25;;;34.12;34.67
32933;BME280;19444;50.518;10.870;2023-06-10T13:55:32;96348.91;;;31.80;33.70
32933;BME280;19444;50.518;10.870;2023-06-10T13:58:29;96346.06;;;32.76;32.70
32933;BME280;19444;50.518;10.870;2023-06-10T14:01:26;96344.53;;;33.52;34.59
32933;BME280;19444;50.518;10.870;2023-06-10T14:04:23;96335.16;;;32.20;33.53
32933;BME280;19444;50.518;10.870;2023-06-10T14:07:20;96342.41;;;32.89;33.89
32933;BME280;19444;50.518;10.870;2023-06-10T14:10:17;96351.53;;;32.98;33.55
32933;BME280;19444;50.518;10.870;2023-06-10T14:13:14;96340.88;;;32.88;33.83
32933;BME280;19444;50.518;10.870;2023-06-10T14:16:11;96334.81;;;32.40;34.56
32933;BME280;19444;50.518;10.870;2023-06-10T14:19:08;96346.56;;;31.22;35.62
32933;BME280;19444;50.518;10.870;2023-06-10T14:22:05;96339.94;;;31.06;34.95
32933;BME280;19444;50.518;10.870;2023-06-10T14:25:04;96330.16;;;32.37;34.78
32933;BME280;19444;50.518;10.870;2023-06-10T14:28:01;96338.63;;;30.35;36.07
32933;BME280;19444;50.518;10.870;2023-06-10T14:30:58;96316.41;;;33.14;36.01
32933;BME280;19444;50.518;10.870;2023-06-10T14:33:55;96316.59;;;32.79;35.51
32933;BME280;19444;50.518;10.870;2023-06-10T14:36:52;96315.47;;;33.26;34.62
32933;BME280;19444;50.518;10.870;2023-06-10T14:39:49;96319.00;;;32.99;35.06
32933;BME280;19444;50.518;10.870;2023-06-10T14:42:46;96339.19;;;30.93;35.65
32933;BME280;19444;50.518;10.870;2023-06-10T14:45:43;96328.50;;;32.39;36.55
32933;BME280;19444;50.518;10.870;2023-06-10T14:48:41;96318.34;;;32.86;36.40
32933;BME280;19444;50.518;10.870;2023-06-10T14:51:38;96322.00;;;32.82;33.60
32933;BME280;19444;50.518;10.870;2023-06-10T14:54:35;96321.31;;;33.19;36.97
32933;BME280;19444;50.518;10.870;2023-06-10T14:57:32;96324.88;;;34.11;34.20
32933;BME280;19444;50.518;10.870;2023-06-10T15:00:32;96321.41;;;31.85;34.77
32933;BME280;19444;50.518;10.870;2023-06-10T15:03:29;96336.22;;;30.75;41.55
32933;BME280;19444;50.518;10.870;2023-06-10T15:06:26;96335.94;;;31.07;37.44
32933;BME280;19444;50.518;10.870;2023-06-10T15:09:23;96340.53;;;29.83;40.71
32933;BME280;19444;50.518;10.870;2023-06-10T15:12:20;96346.31;;;30.01;42.65
32933;BME280;19444;50.518;10.870;2023-06-10T15:15:17;96337.34;;;32.25;37.60
32933;BME280;19444;50.518;10.870;2023-06-10T15:18:14;96336.59;;;31.59;36.46
32933;BME280;19444;50.518;10.870;2023-06-10T15:21:10;96348.13;;;30.97;38.13
32933;BME280;19444;50.518;10.870;2023-06-10T15:24:07;96341.22;;;31.62;37.45
32933;BME280;19444;50.518;10.870;2023-06-10T15:27:05;96337.13;;;33.77;35.29
32933;BME280;19444;50.518;10.870;2023-06-10T15:30:03;96342.16;;;32.03;37.73
32933;BME280;19444;50.518;10.870;2023-06-10T15:33:00;96343.69;;;32.57;36.39
32933;BME280;19444;50.518;10.870;2023-06-10T15:35:57;96334.19;;;32.14;34.72